• pl
  • eng

Awiacja
Kliknij na pogrubioną czerwoną nazwę, aby odkodować depeszę. 12:31 30.04.2017
  • WIND
  • SIGNIFICANT EURO
  • SIGNIFICANT
  • SIGMET
  • AIRMET
  • TAF FC
  • TAF FT
  • METAR GG30
  • METAR GG00


METAR EPBY 301030Z 03010KT 340V060 9999 BKN034 10/00 Q1024 =

METAR EPGD 301030Z 08011KT 020V120 9999 FEW049 08/M04 Q1024 =

METAR EPKK 301030Z 06003KT 020V090 9999 FEW020 BKN046 08/03 Q1021 =

METAR EPKT 301030Z 05007KT 020V090 9999 FEW046 10/M02 Q1021 =

METAR EPLB 301030Z VRB02KT 9999 SCT030 12/04 Q1021 =

METAR EPLL 301030Z 05007KT 9999 SCT022 OVC025 06/01 Q1023 =

METAR EPMO 301030Z 03006KT 330V070 9999 BKN019 07/02 Q1023 =

METAR EPPO 301030Z 08008KT 050V110 9999 BKN028 08/M00 Q1024 =

METAR EPRA 301030Z 36007KT 320V030 9999 SCT028 10/04 Q1022=

METAR EPRZ 301030Z VRB02KT 9999 BKN025 11/04 Q1020 =

METAR EPSC 301030Z 11012KT 080V150 9999 FEW044 10/M02 Q1023 =

METAR EPSY 301030Z 02012KT 330V050 CAVOK 09/M00 Q1023=

METAR EPWA 301030Z 36005KT 310V050 9999 BKN022 09/02 Q1023 NOSIG=

METAR EPWR 301030Z 05006KT 360V090 9999 FEW037 10/01 Q1022 =

METAR EPZG 301030Z 08007KT 050V120 9999 BKN024 09/03 Q1023 =
Awiacja.imgw.pl jest pogodowym serwisem informacyjnym
Instytutu Meteorologii i Gospodarki Wodnej Państwowego Instytutu Badawczego.
Copyright IMGW PIB 2009-2011© Wszelkie prawa zastrzeżone.